Luang-Prabang, Lao Peoples Republic

4:07 PM ICT on February 26, 2017 (GMT +0700)
Luang Prabang | | Change Station

Elev 1001 ft 19.88 °N, 102.13 °E | Updated 1 hour ago

Partly Cloudy
Partly Cloudy
91 °F
Feels Like 92 °F
N
12
Wind Variable Wind from SW

Today
High -- | Low -- °F
--% Chance of Precip.
Yesterday
High -- | Low -- °F
Precip. -- in
Pressure 29.80 in
Visibility 6.2 miles
Clouds Scattered Clouds 1700 ft
Few 6000 ft
Heat Index 92 °F
Dew Point 63 °F
Humidity 38%
Rainfall 0.00 in
Snow Depth Not available.
6:33 AM 6:15 PM
Waning Crescent, 0% visible
METAR VLLB 260800Z 22010KT 9999 SCT017 FEW060 33/17 Q1009 NOSIG
Pressure 29.80 in
Visibility 6.2 miles
Clouds Scattered Clouds 1700 ft
Few 6000 ft
Heat Index 92 °F
Dew Point 63 °F
Humidity 38%
Rainfall 0.00 in
Snow Depth Not available.
6:33 AM 6:15 PM
Waning Crescent, 0% visible
METAR VLLB 260800Z 22010KT 9999 SCT017 FEW060 33/17 Q1009 NOSIG

Get Your Daily Forecast Email!

Thanks for signing up!

Be on the lookout for a verification email in your inbox.

You'll start receiving the daily forecast at 8 AM.

×

10-Day Weather Forecast

No radar image for this location.
×

Almanac

Astronomy

Feb. 26, 2017 Rise Set
Actual Time
Civil Twilight
Nautical Twilight
Astronomical Twilight
Moon
Length of Visible Light
Length of Day
Tomorrow will be .
, % of the Moon is Illuminated

Today's Extremes

Country Highs Country Lows

Community

WunderPhotos

Upload Photos

1,962,540 photos uploaded!

WunderBlog® & News

Nearby

Air Quality

  Air Quality AQ Index Pollutant
Not available.

Snow Depth

Station Depth Elevation

Earthquake Activity

City Distance Mag. Time & Date
Minimum magnitude displayed is 2.5.

Coastal Water Temperatures

Place Temperature

Stations

Nearby Weather Stations

Station Location Temp. Windchill Dew Point Humidity Wind Precip. Elev Updated Type